Fly Creek, New York
Current Conditions -  °F | °C
As of 3:35 PM on Tuesday 21 Oct 2014 (Local Time) from KNY0 Reporting Station
Overcast Overcast  
Wind Chill: 50°   Ceiling: 1000
Heat Index: 50°   Visibility: 10mi
Dew Point: 47°   Wind: 7mph
Humidity: 89%   Direction: 50°NE
Pressure: 29.91"   Gusts: NA
Location:  42.72°N, 74.98°W
Report Text: KNY0 211935Z AUTO 05006KT 10SM BKN010 OVC055 10/08 A2991 RMK AO2 T01010083
Loading
Personal Weather Stations






























Interactive Weather Map
Tropical Storm Tracking
New forecast layout! Learn more

10-Day Weather Forecast

Advertisements
Track Severe Weather on mobile